Time,TemperatureF,DewpointF,PressureIn,WindDirection,WindDirectionDegrees,WindSpeedMPH,WindSpeedGustMPH,Humidity,HourlyPrecipIn,Conditions,Clouds,dailyrainin,SolarRadiationWatts/m^2,SoftwareType,DateUTC
2013-04-04 00:00:00,46.8,27.6,30.15,NE,50,5.0,9.0,47,0.00,OVC,,0.00,0.0,WeatherDisplay:10.37,2013-04-04 05:00:00,
2013-04-04 00:10:00,47.0,27.2,30.14,NE,47,5.0,10.0,46,0.00,OVC,,0.00,0.0,WeatherDisplay:10.37,2013-04-04 05:10:00,
2013-04-04 00:20:00,47.0,27.3,30.15,NE,51,3.0,7.0,46,0.00,OVC,,0.00,0.0,WeatherDisplay:10.37,2013-04-04 05:20:00,
2013-04-04 00:30:00,47.0,27.3,30.14,NE,49,3.0,12.0,46,0.00,OVC,,0.00,0.0,WeatherDisplay:10.37,2013-04-04 05:30:00,
2013-04-04 00:40:00,46.9,27.2,30.14,NE,46,2.0,8.0,46,0.00,OVC,,0.00,0.0,WeatherDisplay:10.37,2013-04-04 05:40:00,
2013-04-04 00:50:00,46.9,27.2,30.14,NE,49,3.0,8.0,46,0.00,OVC,,0.00,0.0,WeatherDisplay:10.37,2013-04-04 05:50:00,
2013-04-04 01:00:00,46.9,26.6,30.14,NE,40,3.0,7.0,45,0.00,OVC,,0.00,0.0,WeatherDisplay:10.37,2013-04-04 06:00:00,
2013-04-04 01:10:00,46.8,26.6,30.13,NE,44,3.0,6.0,45,0.00,OVC,,0.00,0.0,WeatherDisplay:10.37,2013-04-04 06:10:00,
2013-04-04 01:20:00,46.6,26.9,30.12,NE,50,2.0,7.0,46,0.00,OVC,,0.00,0.0,WeatherDisplay:10.37,2013-04-04 06:20:00,
2013-04-04 01:30:00,46.5,26.8,30.12,NE,51,2.0,8.0,46,0.00,BKN,,0.00,0.0,WeatherDisplay:10.37,2013-04-04 06:30:00,
2013-04-04 01:40:00,46.3,26.6,30.11,ENE,57,3.0,9.0,46,0.00,BKN,,0.00,0.0,WeatherDisplay:10.37,2013-04-04 06:40:00,
2013-04-04 01:50:00,46.3,26.1,30.11,NE,45,3.0,8.0,45,0.00,BKN,,0.00,0.0,WeatherDisplay:10.37,2013-04-04 06:50:00,
2013-04-04 02:00:00,46.3,26.6,30.11,NE,39,1.0,5.0,46,0.00,BKN,,0.00,0.0,WeatherDisplay:10.37,2013-04-04 07:00:00,
2013-04-04 02:10:00,46.2,26.5,30.10,NE,46,3.0,6.0,46,0.00,OVC,,0.00,0.0,WeatherDisplay:10.37,2013-04-04 07:10:00,
2013-04-04 02:20:00,46.2,26.5,30.10,NE,44,2.0,7.0,46,0.00,OVC,,0.00,0.0,WeatherDisplay:10.37,2013-04-04 07:20:00,
2013-04-04 02:30:00,46.2,26.0,30.10,NE,39,5.0,6.0,45,0.00,OVC,,0.00,0.0,WeatherDisplay:10.37,2013-04-04 07:30:00,
2013-04-04 02:40:00,46.2,26.0,30.09,NE,46,3.0,6.0,45,0.00,OVC,,0.00,0.0,WeatherDisplay:10.37,2013-04-04 07:40:00,
2013-04-04 02:50:00,46.0,25.8,30.09,NE,46,2.0,6.0,45,0.00,OVC,,0.00,0.0,WeatherDisplay:10.37,2013-04-04 07:50:00,
2013-04-04 03:00:00,46.0,25.8,30.09,NE,49,1.0,7.0,45,0.00,OVC,,0.00,0.0,WeatherDisplay:10.37,2013-04-04 08:00:00,
2013-04-04 03:10:00,45.9,25.7,30.08,NE,49,3.0,6.0,45,0.00,OVC,,0.00,0.0,WeatherDisplay:10.37,2013-04-04 08:10:00,
2013-04-04 03:20:00,45.8,26.2,30.08,NE,50,1.0,7.0,46,0.00,OVC,,0.00,0.0,WeatherDisplay:10.37,2013-04-04 08:20:00,
2013-04-04 03:30:00,45.8,26.2,30.08,NE,46,5.0,7.0,46,0.00,OVC,,0.00,0.0,WeatherDisplay:10.37,2013-04-04 08:30:00,
2013-04-04 03:40:00,45.7,26.1,30.08,NE,46,5.0,6.0,46,0.00,OVC,,0.00,0.0,WeatherDisplay:10.37,2013-04-04 08:40:00,
2013-04-04 03:50:00,45.7,26.1,30.08,NE,48,3.0,8.0,46,0.00,OVC,,0.00,0.0,WeatherDisplay:10.37,2013-04-04 08:50:00,
2013-04-04 04:00:00,45.6,26.5,30.08,NE,46,3.0,7.0,47,0.00,OVC,,0.00,0.0,WeatherDisplay:10.37,2013-04-04 09:00:00,
2013-04-04 04:10:00,45.5,26.4,30.07,NE,48,2.0,8.0,47,0.00,OVC,,0.00,0.0,WeatherDisplay:10.37,2013-04-04 09:10:00,
2013-04-04 04:20:00,45.3,26.3,30.08,NE,43,3.0,6.0,47,0.00,OVC,,0.00,0.0,WeatherDisplay:10.37,2013-04-04 09:20:00,
2013-04-04 04:30:00,45.4,26.3,30.08,NE,36,2.0,7.0,47,0.00,OVC,,0.00,0.0,WeatherDisplay:10.37,2013-04-04 09:30:00,
2013-04-04 04:40:00,45.3,26.2,30.08,NE,40,3.0,5.0,47,0.00,OVC,,0.00,0.0,WeatherDisplay:10.37,2013-04-04 09:40:00,
2013-04-04 04:50:00,45.2,26.1,30.08,NE,34,2.0,6.0,47,0.00,OVC,,0.00,0.0,WeatherDisplay:10.37,2013-04-04 09:50:00,
2013-04-04 05:00:00,45.1,26.6,30.07,NE,42,3.0,6.0,48,0.00,OVC,,0.00,0.0,WeatherDisplay:10.37,2013-04-04 10:00:00,
2013-04-04 05:10:00,45.1,26.5,30.06,NE,42,2.0,8.0,48,0.00,OVC,,0.00,0.0,WeatherDisplay:10.37,2013-04-04 10:10:00,
2013-04-04 05:20:00,45.0,26.5,30.06,NE,49,5.0,7.0,48,0.00,OVC,,0.00,0.0,WeatherDisplay:10.37,2013-04-04 10:20:00,
2013-04-04 05:30:00,44.9,26.9,30.06,NE,48,3.0,6.0,49,0.00,OVC,,0.00,0.0,WeatherDisplay:10.37,2013-04-04 10:30:00,
2013-04-04 05:40:00,44.8,26.8,30.06,NE,47,3.0,7.0,49,0.00,OVC,,0.00,0.0,WeatherDisplay:10.37,2013-04-04 10:40:00,
2013-04-04 05:50:00,44.8,26.7,30.06,NE,46,3.0,7.0,49,0.00,OVC,,0.00,0.0,WeatherDisplay:10.37,2013-04-04 10:50:00,
2013-04-04 06:00:00,44.8,26.8,30.06,NE,39,3.0,8.0,49,0.00,OVC,,0.00,0.0,WeatherDisplay:10.37,2013-04-04 11:00:00,
2013-04-04 06:10:00,44.8,26.3,30.06,NE,50,5.0,7.0,48,0.00,BKN,,0.00,0.0,WeatherDisplay:10.37,2013-04-04 11:10:00,
2013-04-04 06:20:00,44.7,26.2,30.06,NE,45,5.0,10.0,48,0.00,BKN,,0.00,0.0,WeatherDisplay:10.37,2013-04-04 11:20:00,
2013-04-04 06:30:00,44.7,26.7,30.07,NE,46,3.0,7.0,49,0.00,OVC,,0.00,0.0,WeatherDisplay:10.37,2013-04-04 11:30:00,
2013-04-04 06:40:00,44.6,27.5,30.07,NE,47,3.0,7.0,51,0.00,OVC,,0.00,0.0,WeatherDisplay:10.37,2013-04-04 11:40:00,
2013-04-04 06:50:00,44.3,28.2,30.08,NE,49,2.0,7.0,53,0.00,OVC,,0.00,0.0,WeatherDisplay:10.37,2013-04-04 11:50:00,
2013-04-04 07:00:00,43.9,29.2,30.08,NE,49,2.0,7.0,56,0.00,OVC,,0.00,0.0,WeatherDisplay:10.37,2013-04-04 12:00:00,
2013-04-04 07:10:00,43.5,29.3,30.08,NE,53,2.0,6.0,57,0.00,OVC,,0.00,0.0,WeatherDisplay:10.37,2013-04-04 12:10:00,
2013-04-04 07:20:00,43.2,29.8,30.08,NE,48,3.0,8.0,59,0.00,OVC,,0.00,0.0,WeatherDisplay:10.37,2013-04-04 12:20:00,
2013-04-04 07:30:00,42.4,31.5,30.08,NE,50,2.0,6.0,65,0.01,RA,,0.01,0.0,WeatherDisplay:10.37,2013-04-04 12:30:00,
2013-04-04 07:40:00,41.7,31.9,30.08,NE,51,3.0,6.0,68,0.01,RA,,0.02,0.0,WeatherDisplay:10.37,2013-04-04 12:40:00,
2013-04-04 07:50:00,41.2,32.5,30.08,NE,50,3.0,7.0,71,0.01,RA,,0.03,0.0,WeatherDisplay:10.37,2013-04-04 12:50:00,
2013-04-04 08:00:00,40.7,33.1,30.08,NE,48,3.0,6.0,74,0.02,RA,,0.05,0.0,WeatherDisplay:10.37,2013-04-04 13:00:00,
2013-04-04 08:10:00,40.1,33.8,30.08,NE,52,3.0,7.0,78,0.02,RA,,0.07,0.0,WeatherDisplay:10.37,2013-04-04 13:10:00,
2013-04-04 08:20:00,39.7,34.3,30.07,ENE,60,2.0,8.0,81,0.02,RA,,0.09,0.0,WeatherDisplay:10.37,2013-04-04 13:20:00,
2013-04-04 08:30:00,39.4,34.4,30.07,NE,52,3.0,8.0,82,0.01,RA,,0.10,0.0,WeatherDisplay:10.37,2013-04-04 13:30:00,
2013-04-04 08:40:00,39.3,34.3,30.07,NE,56,5.0,8.0,82,0.02,RA,,0.12,0.0,WeatherDisplay:10.37,2013-04-04 13:40:00,
2013-04-04 08:50:00,39.2,34.8,30.07,NE,49,3.0,9.0,84,0.00,OVC,,0.12,0.0,WeatherDisplay:10.37,2013-04-04 13:50:00,
2013-04-04 09:00:00,39.3,34.9,30.07,NE,48,5.0,12.0,84,0.01,RA,,0.13,0.0,WeatherDisplay:10.37,2013-04-04 14:00:00,
2013-04-04 09:10:00,39.4,35.2,30.08,NE,50,1.0,10.0,85,0.00,OVC,,0.13,0.0,WeatherDisplay:10.37,2013-04-04 14:10:00,
2013-04-04 09:20:00,39.6,35.7,30.08,NE,56,3.0,5.0,86,0.01,RA,,0.14,0.0,WeatherDisplay:10.37,2013-04-04 14:20:00,
2013-04-04 09:30:00,39.8,36.0,30.08,ENE,66,2.0,7.0,86,0.00,OVC,,0.14,0.0,WeatherDisplay:10.37,2013-04-04 14:30:00,
2013-04-04 09:40:00,40.0,35.9,30.08,ENE,60,2.0,8.0,85,0.01,RA,,0.15,0.0,WeatherDisplay:10.37,2013-04-04 14:40:00,
2013-04-04 09:50:00,40.2,36.0,30.08,NE,55,1.0,5.0,85,0.00,OVC,,0.15,0.0,WeatherDisplay:10.37,2013-04-04 14:50:00,
2013-04-04 10:00:00,40.3,36.4,30.08,NE,51,0.0,6.0,86,0.01,RA,,0.16,0.0,WeatherDisplay:10.37,2013-04-04 15:00:00,
2013-04-04 10:10:00,40.6,37.0,30.08,NE,54,2.0,5.0,87,0.00,OVC,,0.16,0.0,WeatherDisplay:10.37,2013-04-04 15:10:00,
2013-04-04 10:20:00,40.5,36.6,30.09,NE,51,5.0,8.0,86,0.01,RA,,0.17,0.0,WeatherDisplay:10.37,2013-04-04 15:20:00,
2013-04-04 10:30:00,40.5,36.9,30.09,NE,54,2.0,6.0,87,0.01,RA,,0.18,0.0,WeatherDisplay:10.37,2013-04-04 15:30:00,
2013-04-04 10:40:00,40.5,36.9,30.09,NE,49,3.0,7.0,87,0.01,RA,,0.19,0.0,WeatherDisplay:10.37,2013-04-04 15:40:00,
2013-04-04 10:50:00,40.6,37.6,30.09,NE,51,2.0,6.0,89,0.01,RA,,0.20,0.0,WeatherDisplay:10.37,2013-04-04 15:50:00,
2013-04-04 11:00:00,40.6,37.6,30.09,NE,41,5.0,7.0,89,0.00,OVC,,0.20,0.0,WeatherDisplay:10.37,2013-04-04 16:00:00,
2013-04-04 11:10:00,40.7,37.7,30.08,NE,40,3.0,7.0,89,0.01,RA,,0.21,0.0,WeatherDisplay:10.37,2013-04-04 16:10:00,
2013-04-04 11:20:00,40.7,37.7,30.08,NE,46,3.0,8.0,89,0.01,RA,,0.22,0.0,WeatherDisplay:10.37,2013-04-04 16:20:00,
2013-04-04 11:30:00,40.9,37.9,30.08,NE,51,3.0,7.0,89,0.00,OVC,,0.22,0.0,WeatherDisplay:10.37,2013-04-04 16:30:00,
2013-04-04 11:40:00,40.9,37.9,30.08,NE,51,1.0,10.0,89,0.01,RA,,0.23,0.0,WeatherDisplay:10.37,2013-04-04 16:40:00,
2013-04-04 11:50:00,41.4,38.7,30.08,NE,47,2.0,6.0,90,0.00,OVC,,0.23,0.0,WeatherDisplay:10.37,2013-04-04 16:50:00,
2013-04-04 12:00:00,41.8,39.1,30.07,NE,50,2.0,6.0,90,0.00,OVC,,0.23,0.0,WeatherDisplay:10.37,2013-04-04 17:00:00,
2013-04-04 12:10:00,41.9,38.9,30.07,NE,49,6.0,8.0,89,0.01,RA,,0.24,0.0,WeatherDisplay:10.37,2013-04-04 17:10:00,
2013-04-04 12:20:00,42.4,39.9,30.07,ENE,60,1.0,7.0,91,0.00,OVC,,0.24,0.0,WeatherDisplay:10.37,2013-04-04 17:20:00,
2013-04-04 12:30:00,42.5,39.8,30.06,NE,52,1.0,7.0,90,0.00,OVC,,0.24,0.0,WeatherDisplay:10.37,2013-04-04 17:30:00,
2013-04-04 12:40:00,42.8,40.1,30.06,ENE,72,2.0,7.0,90,0.00,OVC,,0.24,0.0,WeatherDisplay:10.37,2013-04-04 17:40:00,
2013-04-04 12:50:00,42.9,40.2,30.06,ENE,69,0.0,7.0,90,0.00,OVC,,0.24,0.0,WeatherDisplay:10.37,2013-04-04 17:50:00,
2013-04-04 13:00:00,42.9,40.2,30.06,ENE,65,1.0,3.0,90,0.00,OVC,,0.24,0.0,WeatherDisplay:10.37,2013-04-04 18:00:00,
2013-04-04 13:10:00,43.0,40.6,30.06,ENE,59,1.0,3.0,91,0.02,RA,,0.26,0.0,WeatherDisplay:10.37,2013-04-04 18:10:00,
2013-04-04 13:20:00,42.8,40.1,30.05,NE,52,2.0,6.0,90,0.00,OVC,,0.26,0.0,WeatherDisplay:10.37,2013-04-04 18:20:00,
2013-04-04 13:30:00,42.9,40.5,30.05,NE,36,3.0,5.0,91,0.00,OVC,,0.26,0.0,WeatherDisplay:10.37,2013-04-04 18:30:00,
2013-04-04 13:40:00,43.1,40.6,30.04,NE,45,3.0,5.0,91,0.01,RA,,0.27,0.0,WeatherDisplay:10.37,2013-04-04 18:40:00,
2013-04-04 13:50:00,43.8,41.7,30.04,ENE,58,2.0,5.0,92,0.00,OVC,,0.27,0.0,WeatherDisplay:10.37,2013-04-04 18:50:00,
2013-04-04 14:00:00,43.7,41.2,30.04,NE,46,5.0,8.0,91,0.01,RA,,0.28,0.0,WeatherDisplay:10.37,2013-04-04 19:00:00,
2013-04-04 14:10:00,43.8,41.6,30.03,NE,54,3.0,7.0,92,0.00,OVC,,0.28,0.0,WeatherDisplay:10.37,2013-04-04 19:10:00,
2013-04-04 14:20:00,44.1,41.9,30.03,ENE,60,2.0,5.0,92,0.00,OVC,,0.28,0.0,WeatherDisplay:10.37,2013-04-04 19:20:00,
2013-04-04 14:30:00,44.1,41.6,30.03,NE,48,6.0,7.0,91,0.00,OVC,,0.28,0.0,WeatherDisplay:10.37,2013-04-04 19:30:00,
2013-04-04 14:40:00,44.1,41.6,30.02,NE,48,6.0,8.0,91,0.00,OVC,,0.28,0.0,WeatherDisplay:10.37,2013-04-04 19:40:00,
2013-04-04 14:50:00,44.1,41.7,30.02,NE,47,3.0,7.0,91,0.00,OVC,,0.28,0.0,WeatherDisplay:10.37,2013-04-04 19:50:00,
2013-04-04 15:00:00,44.2,41.5,30.02,NE,44,5.0,9.0,90,0.00,OVC,,0.28,0.0,WeatherDisplay:10.37,2013-04-04 20:00:00,
2013-04-04 15:10:00,44.3,41.9,30.02,NE,48,3.0,8.0,91,0.00,OVC,,0.28,0.0,WeatherDisplay:10.37,2013-04-04 20:10:00,
2013-04-04 15:20:00,44.7,42.3,30.01,NE,49,3.0,7.0,91,0.00,OVC,,0.28,0.0,WeatherDisplay:10.37,2013-04-04 20:20:00,
2013-04-04 15:30:00,45.1,42.6,30.01,NE,44,6.0,8.0,91,0.00,OVC,,0.28,0.0,WeatherDisplay:10.37,2013-04-04 20:30:00,
2013-04-04 15:40:00,45.4,42.6,30.01,NE,41,5.0,10.0,90,0.00,OVC,,0.28,0.0,WeatherDisplay:10.37,2013-04-04 20:40:00,
2013-04-04 15:50:00,45.8,43.0,30.00,NNE,30,3.0,10.0,90,0.00,OVC,,0.28,0.0,WeatherDisplay:10.37,2013-04-04 20:50:00,
2013-04-04 16:00:00,46.0,43.0,30.00,NNE,32,5.0,8.0,89,0.00,OVC,,0.28,0.0,WeatherDisplay:10.37,2013-04-04 21:00:00,
2013-04-04 16:10:00,46.0,42.6,30.00,NE,37,5.0,10.0,88,0.00,OVC,,0.28,0.0,WeatherDisplay:10.37,2013-04-04 21:10:00,
2013-04-04 16:20:00,46.1,42.7,30.00,NNE,32,6.0,8.0,88,0.00,OVC,,0.28,0.0,WeatherDisplay:10.37,2013-04-04 21:20:00,
2013-04-04 16:30:00,46.3,42.9,30.00,NE,35,5.0,9.0,88,0.00,OVC,,0.28,0.0,WeatherDisplay:10.37,2013-04-04 21:30:00,
2013-04-04 16:40:00,46.5,42.5,30.00,NE,40,6.0,10.0,86,0.00,OVC,,0.28,0.0,WeatherDisplay:10.37,2013-04-04 21:40:00,
2013-04-04 16:50:00,46.8,43.4,29.99,NE,43,2.0,7.0,88,0.01,RA,,0.29,0.0,WeatherDisplay:10.37,2013-04-04 21:50:00,
2013-04-04 17:00:00,47.0,43.7,29.99,NE,49,3.0,5.0,88,0.00,OVC,,0.29,0.0,WeatherDisplay:10.37,2013-04-04 22:00:00,
2013-04-04 17:10:00,47.0,43.6,29.99,NE,43,2.0,6.0,88,0.00,OVC,,0.29,0.0,WeatherDisplay:10.37,2013-04-04 22:10:00,
2013-04-04 17:20:00,47.1,43.1,30.00,NE,52,1.0,4.0,86,0.00,OVC,,0.29,0.0,WeatherDisplay:10.37,2013-04-04 22:20:00,
2013-04-04 17:30:00,47.1,42.8,30.00,NE,43,2.0,5.0,85,0.00,OVC,,0.29,0.0,WeatherDisplay:10.37,2013-04-04 22:30:00,
2013-04-04 17:40:00,47.1,42.8,30.00,NE,43,2.0,5.0,85,0.00,OVC,,0.29,0.0,WeatherDisplay:10.37,2013-04-04 22:40:00,
2013-04-04 17:50:00,47.1,42.8,30.00,NNE,13,2.0,4.0,85,0.01,RA,,0.30,0.0,WeatherDisplay:10.37,2013-04-04 22:50:00,
2013-04-04 18:00:00,47.1,43.1,30.00,NNE,27,1.0,5.0,86,0.00,OVC,,0.30,0.0,WeatherDisplay:10.37,2013-04-04 23:00:00,
2013-04-04 18:10:00,47.1,43.1,30.01,NNE,21,1.0,4.0,86,0.00,OVC,,0.30,0.0,WeatherDisplay:10.37,2013-04-04 23:10:00,
2013-04-04 18:20:00,47.0,42.7,30.01,NNE,23,1.0,4.0,85,0.00,OVC,,0.30,0.0,WeatherDisplay:10.37,2013-04-04 23:20:00,
2013-04-04 18:30:00,47.0,43.0,30.01,North,11,1.0,3.0,86,0.00,OVC,,0.30,0.0,WeatherDisplay:10.37,2013-04-04 23:30:00,
2013-04-04 18:40:00,47.1,43.1,30.01,NNE,25,0.0,3.0,86,0.00,OVC,,0.30,0.0,WeatherDisplay:10.37,2013-04-04 23:40:00,
2013-04-04 18:50:00,47.3,43.0,30.01,NE,42,0.0,2.0,85,0.00,OVC,,0.30,0.0,WeatherDisplay:10.37,2013-04-04 23:50:00,
2013-04-04 19:00:00,47.2,43.3,30.00,NE,50,1.0,1.0,86,0.00,OVC,,0.30,0.0,WeatherDisplay:10.37,2013-04-05 00:00:00,
2013-04-04 19:10:00,47.2,43.2,30.00,NE,50,0.0,1.0,86,0.00,OVC,,0.30,0.0,WeatherDisplay:10.37,2013-04-05 00:10:00,
2013-04-04 19:20:00,47.0,43.0,30.00,NE,50,0.0,1.0,86,0.00,OVC,,0.30,0.0,WeatherDisplay:10.37,2013-04-05 00:20:00,
2013-04-04 19:30:00,47.1,43.1,30.00,NE,50,0.0,1.0,86,0.00,OVC,,0.30,0.0,WeatherDisplay:10.37,2013-04-05 00:30:00,
2013-04-04 19:40:00,47.1,42.8,30.00,NE,50,0.0,1.0,85,0.00,OVC,,0.30,0.0,WeatherDisplay:10.37,2013-04-05 00:40:00,
2013-04-04 19:50:00,46.9,42.9,30.01,NE,50,0.0,0.0,86,0.00,OVC,,0.30,0.0,WeatherDisplay:10.37,2013-04-05 00:50:00,
2013-04-04 20:00:00,46.9,43.2,30.01,NE,50,0.0,1.0,87,0.00,OVC,,0.30,0.0,WeatherDisplay:10.37,2013-04-05 01:00:00,
2013-04-04 20:10:00,46.9,43.6,30.00,NE,50,0.0,1.0,88,0.00,OVC,,0.30,0.0,WeatherDisplay:10.37,2013-04-05 01:10:00,
2013-04-04 20:20:00,47.1,43.7,30.00,East,88,1.0,1.0,88,0.00,OVC,,0.30,0.0,WeatherDisplay:10.37,2013-04-05 01:20:00,
2013-04-04 20:30:00,47.0,43.9,30.01,ESE,121,0.0,1.0,89,0.00,OVC,,0.30,0.0,WeatherDisplay:10.37,2013-04-05 01:30:00,
2013-04-04 20:40:00,46.9,43.5,30.01,SE,124,0.0,1.0,88,0.00,OVC,,0.30,0.0,WeatherDisplay:10.37,2013-04-05 01:40:00,
2013-04-04 20:50:00,46.9,43.5,30.01,SE,124,0.0,1.0,88,0.00,OVC,,0.30,0.0,WeatherDisplay:10.37,2013-04-05 01:50:00,
2013-04-04 21:00:00,46.7,43.9,30.02,SE,124,0.0,1.0,90,0.00,OVC,,0.30,0.0,WeatherDisplay:10.37,2013-04-05 02:00:00,
2013-04-04 21:10:00,46.4,43.9,30.02,SE,124,0.0,0.0,91,0.00,OVC,,0.30,0.0,WeatherDisplay:10.37,2013-04-05 02:10:00,
2013-04-04 21:20:00,46.2,43.4,30.02,SE,124,0.0,0.0,90,0.00,OVC,,0.30,0.0,WeatherDisplay:10.37,2013-04-05 02:20:00,
2013-04-04 21:30:00,46.1,43.3,30.02,SE,124,0.0,1.0,90,0.00,OVC,,0.30,0.0,WeatherDisplay:10.37,2013-04-05 02:30:00,
2013-04-04 21:40:00,46.0,43.6,30.02,SE,124,0.0,1.0,91,0.00,OVC,,0.30,0.0,WeatherDisplay:10.37,2013-04-05 02:40:00,
2013-04-04 21:50:00,46.0,43.5,30.02,SE,124,0.0,0.0,91,0.00,OVC,,0.30,0.0,WeatherDisplay:10.37,2013-04-05 02:50:00,
2013-04-04 22:00:00,45.9,43.5,30.02,SE,124,0.0,0.0,91,0.00,OVC,,0.30,0.0,WeatherDisplay:10.37,2013-04-05 03:00:00,
2013-04-04 22:10:00,46.1,43.6,30.02,SE,124,0.0,1.0,91,0.00,OVC,,0.30,0.0,WeatherDisplay:10.37,2013-04-05 03:10:00,
2013-04-04 22:20:00,46.1,43.6,30.02,SE,124,0.0,1.0,91,0.00,OVC,,0.30,0.0,WeatherDisplay:10.37,2013-04-05 03:20:00,
2013-04-04 22:30:00,46.1,43.3,30.02,SE,124,0.0,1.0,90,0.00,OVC,,0.30,0.0,WeatherDisplay:10.37,2013-04-05 03:30:00,
2013-04-04 22:40:00,46.2,43.1,30.02,SE,124,0.0,1.0,89,0.00,OVC,,0.30,0.0,WeatherDisplay:10.37,2013-04-05 03:40:00,
2013-04-04 22:50:00,46.3,43.6,30.02,SE,142,0.0,1.0,90,0.00,OVC,,0.30,0.0,WeatherDisplay:10.37,2013-04-05 03:50:00,
2013-04-04 23:00:00,46.1,43.4,30.02,WSW,255,0.0,1.0,90,0.00,OVC,,0.30,0.0,WeatherDisplay:10.37,2013-04-05 04:00:00,
2013-04-04 23:10:00,46.1,43.3,30.02,WSW,255,0.0,1.0,90,0.00,OVC,,0.30,0.0,WeatherDisplay:10.37,2013-04-05 04:10:00,
2013-04-04 23:20:00,46.0,43.2,30.02,West,262,0.0,1.0,90,0.00,OVC,,0.30,0.0,WeatherDisplay:10.37,2013-04-05 04:20:00,
2013-04-04 23:30:00,46.1,43.0,30.03,NW,309,0.0,2.0,89,0.00,OVC,,0.30,0.0,WeatherDisplay:10.37,2013-04-05 04:30:00,
2013-04-04 23:40:00,46.2,43.1,30.03,NW,319,1.0,2.0,89,0.00,OVC,,0.30,0.0,WeatherDisplay:10.37,2013-04-05 04:40:00,
2013-04-04 23:50:00,46.3,43.2,30.03,NW,315,0.0,2.0,89,0.00,OVC,,0.30,0.0,WeatherDisplay:10.37,2013-04-05 04:50:00,